Time;durP1;ratioP1;P1;durP2;ratioP2;P2;SDS_P1;SDS_P2;PMS_P1;PMS_P2;Temp;Humidity;BMP_temperature;BMP_pressure;BME280_temperature;BME280_humidity;BME280_pressure;Samples;Min_cycle;Max_cycle;Signal;HPM_P1;HPM_P2
2022/12/13 00:01:37;;;;;;;39.90;17.73;;;;;;;-5.54;70.50;98468.03;5029845;28;20461;-78
2022/12/13 00:04:05;;;;;;;37.03;15.98;;;;;;;-5.60;70.82;98461.69;5030486;28;20063;-78
2022/12/13 00:06:32;;;;;;;31.92;15.15;;;;;;;-5.56;70.66;98464.78;5038583;28;20049;-78
2022/12/13 00:08:58;;;;;;;40.17;16.67;;;;;;;-5.74;70.91;98461.44;5043552;28;20499;-78
2022/12/13 00:11:24;;;;;;;31.65;15.48;;;;;;;-5.75;70.30;98457.22;5012333;28;20029;-78
2022/12/13 00:13:49;;;;;;;33.85;15.50;;;;;;;-5.68;70.83;98473.81;5027656;28;20033;-78
2022/12/13 00:16:18;;;;;;;28.85;13.82;;;;;;;-5.81;70.98;98461.25;5022133;28;20029;-78
2022/12/13 00:18:46;;;;;;;32.63;15.43;;;;;;;-5.84;70.46;98465.97;5042482;28;20025;-78
2022/12/13 00:21:15;;;;;;;36.13;17.27;;;;;;;-5.68;70.75;98463.44;5030273;28;20025;-78
2022/12/13 00:23:40;;;;;;;29.00;16.50;;;;;;;-5.61;70.46;98461.81;5033600;28;20543;-78
2022/12/13 00:26:13;;;;;;;26.17;15.40;;;;;;;-5.70;70.38;98447.19;5029981;28;20116;-78
2022/12/13 00:28:40;;;;;;;29.88;14.85;;;;;;;-5.76;70.58;98451.19;5027031;28;20128;-79
2022/12/13 00:31:06;;;;;;;27.35;12.57;;;;;;;-5.63;70.56;98464.59;5030858;28;20021;-78
2022/12/13 00:33:32;;;;;;;30.52;14.85;;;;;;;-5.66;70.45;98453.69;5030165;28;20033;-78
2022/12/13 00:35:57;;;;;;;26.10;13.70;;;;;;;-5.59;69.87;98454.72;5022981;28;20040;-78
2022/12/13 00:38:23;;;;;;;23.30;12.63;;;;;;;-5.70;70.23;98449.78;5009947;28;20108;-78
2022/12/13 00:40:50;;;;;;;24.35;10.90;;;;;;;-5.76;70.00;98450.38;5028331;28;20033;-78
2022/12/13 00:43:15;;;;;;;20.88;10.32;;;;;;;-5.73;70.09;98452.69;5011257;28;20716;-78
2022/12/13 00:45:41;;;;;;;22.33;9.95;;;;;;;-5.84;70.24;98448.59;5031518;28;20116;-78
2022/12/13 00:48:06;;;;;;;22.08;11.27;;;;;;;-5.84;70.17;98440.00;5027626;28;20496;-78
2022/12/13 00:50:32;;;;;;;24.15;11.75;;;;;;;-5.92;70.26;98443.38;5013253;28;20037;-78
2022/12/13 00:52:58;;;;;;;20.92;11.07;;;;;;;-5.81;70.52;98450.06;5027788;28;20044;-78
2022/12/13 00:55:24;;;;;;;24.30;10.10;;;;;;;-5.77;70.04;98451.38;5028354;28;20041;-78
2022/12/13 00:57:50;;;;;;;19.58;9.88;;;;;;;-5.88;69.41;98438.69;5024397;28;20397;-78
2022/12/13 01:00:15;;;;;;;23.13;9.63;;;;;;;-5.97;70.08;98437.81;5026654;28;20029;-78
2022/12/13 01:02:42;;;;;;;21.00;9.32;;;;;;;-6.07;70.30;98438.91;5026104;28;20057;-78
2022/12/13 01:05:08;;;;;;;17.60;8.63;;;;;;;-6.01;70.20;98435.69;5029513;28;20030;-78
2022/12/13 01:07:33;;;;;;;21.35;9.82;;;;;;;-6.01;70.09;98436.50;5030160;28;20519;-78
2022/12/13 01:09:59;;;;;;;18.92;9.50;;;;;;;-6.08;70.19;98427.69;5012352;28;20036;-78
2022/12/13 01:12:25;;;;;;;22.25;10.25;;;;;;;-6.00;69.70;98439.91;5027763;28;20053;-78
2022/12/13 01:14:50;;;;;;;25.55;13.13;;;;;;;-5.96;69.68;98438.66;5025333;28;20060;-78
2022/12/13 01:17:15;;;;;;;26.67;14.32;;;;;;;-6.11;70.26;98433.19;5028027;28;20033;-78
2022/12/13 01:19:41;;;;;;;27.27;14.38;;;;;;;-6.07;70.05;98447.50;5012426;28;20025;-78
2022/12/13 01:22:06;;;;;;;24.55;13.75;;;;;;;-6.15;70.06;98422.31;5027052;28;20049;-78
2022/12/13 01:24:32;;;;;;;28.10;12.80;;;;;;;-6.07;70.12;98428.53;5029394;28;20489;-78
2022/12/13 01:26:58;;;;;;;29.77;13.23;;;;;;;-6.05;69.60;98416.19;5024874;28;20129;-78
2022/12/13 01:29:25;;;;;;;29.42;13.80;;;;;;;-6.08;69.34;98430.31;5027960;28;20481;-78
2022/12/13 01:31:51;;;;;;;31.50;13.75;;;;;;;-6.06;69.73;98424.94;5027328;28;20075;-78
2022/12/13 01:34:20;;;;;;;33.85;12.88;;;;;;;-6.05;69.83;98436.97;5028265;28;20393;-78
2022/12/13 01:36:47;;;;;;;35.63;14.63;;;;;;;-6.05;69.42;98431.78;5028624;28;20489;-78
2022/12/13 01:39:16;;;;;;;37.58;15.38;;;;;;;-5.99;69.60;98438.94;5030343;28;20044;-78
2022/12/13 01:41:55;;;;;;;31.58;13.18;;;;;;;-6.02;69.20;98437.47;5027280;28;20392;-78
2022/12/13 01:44:51;;;;;;;30.48;15.18;;;;;;;-5.96;69.25;98436.84;5022693;28;20029;-78
2022/12/13 01:47:21;;;;;;;29.30;14.57;;;;;;;-6.00;69.25;98430.34;5025767;28;20037;-78
2022/12/13 01:49:47;;;;;;;28.88;12.30;;;;;;;-6.15;69.60;98418.88;5031493;28;20033;-78
2022/12/13 01:52:15;;;;;;;30.83;13.70;;;;;;;-6.14;69.35;98442.09;5016928;28;20380;-78
2022/12/13 01:54:45;;;;;;;38.55;14.75;;;;;;;-6.23;69.61;98435.25;5031935;28;20024;-78
2022/12/13 01:57:12;;;;;;;23.65;11.43;;;;;;;-6.23;69.82;98430.06;5035922;28;20056;-78
2022/12/13 01:59:40;;;;;;;31.77;12.98;;;;;;;-6.17;69.49;98441.59;5034182;28;20483;-78
2022/12/13 02:02:08;;;;;;;30.70;15.40;;;;;;;-6.16;69.76;98427.66;5030033;28;20087;-78
2022/12/13 02:04:47;;;;;;;33.00;13.75;;;;;;;-6.31;69.65;98435.19;5033677;28;20071;-78
2022/12/13 02:07:15;;;;;;;36.08;14.55;;;;;;;-6.17;69.83;98433.81;5028652;28;20029;-78
2022/12/13 02:09:42;;;;;;;27.35;12.98;;;;;;;-6.06;69.64;98445.72;5027302;28;20029;-78
2022/12/13 02:12:10;;;;;;;32.67;13.73;;;;;;;-6.05;69.44;98436.97;5026640;28;20543;-78
2022/12/13 02:14:36;;;;;;;31.90;15.98;;;;;;;-6.04;69.00;98451.56;5028568;28;20488;-78
2022/12/13 02:17:21;;;;;;;32.92;14.48;;;;;;;-6.04;69.23;98449.78;5026266;28;20029;-78
2022/12/13 02:19:49;;;;;;;29.73;15.25;;;;;;;-6.09;69.23;98454.63;5031489;28;20083;-78
2022/12/13 02:22:33;;;;;;;31.80;13.45;;;;;;;-6.13;69.33;98448.94;5030316;28;20381;-78
2022/12/13 02:25:21;;;;;;;25.50;12.82;;;;;;;-6.19;68.74;98446.13;5032855;28;20420;-78
2022/12/13 02:28:09;;;;;;;32.20;12.85;;;;;;;-6.27;69.44;98438.31;5024238;28;20060;-78
2022/12/13 02:30:49;;;;;;;28.27;11.98;;;;;;;-6.21;69.12;98443.72;5031125;28;20029;-78
2022/12/13 02:33:40;;;;;;;26.33;12.02;;;;;;;-6.22;68.77;98447.25;5045195;28;20041;-78
2022/12/13 02:36:28;;;;;;;29.38;13.50;;;;;;;-6.45;69.12;98427.97;5033071;28;20033;-78
2022/12/13 02:39:17;;;;;;;23.35;11.57;;;;;;;-6.38;68.85;98441.16;5028997;28;20043;-78
2022/12/13 02:41:52;;;;;;;24.13;11.68;;;;;;;-6.30;69.54;98429.03;5032522;28;20032;-78
2022/12/13 02:44:22;;;;;;;29.13;12.67;;;;;;;-6.26;68.94;98435.56;5030911;28;20037;-78
2022/12/13 02:47:02;;;;;;;31.42;13.75;;;;;;;-6.34;68.80;98422.53;5028558;28;20283;-78
2022/12/13 02:49:33;;;;;;;27.30;11.52;;;;;;;-6.32;69.13;98430.16;5029620;28;20036;-78
2022/12/13 02:52:00;;;;;;;28.58;12.55;;;;;;;-6.34;69.25;98429.50;5030025;28;20152;-78
2022/12/13 02:54:25;;;;;;;21.23;11.23;;;;;;;-6.42;69.22;98419.84;5029401;28;20283;-78
2022/12/13 02:56:55;;;;;;;23.38;11.23;;;;;;;-6.51;69.59;98407.78;5031714;28;20025;-78
2022/12/13 02:59:27;;;;;;;27.25;13.07;;;;;;;-6.45;69.24;98419.34;5028882;28;20033;-78
2022/12/13 03:01:52;;;;;;;29.88;14.77;;;;;;;-6.50;69.69;98417.22;5030815;28;20026;-78
2022/12/13 03:04:34;;;;;;;27.02;12.70;;;;;;;-6.65;69.49;98390.19;5031926;28;20037;-77
2022/12/13 03:07:33;;;;;;;27.80;14.63;;;;;;;-6.50;68.98;98422.41;5029940;28;20477;-78
2022/12/13 03:10:11;;;;;;;29.15;13.52;;;;;;;-6.44;69.39;98414.00;5013061;28;20033;-78
2022/12/13 03:15:46;;;;;;;30.83;14.05;;;;;;;-6.32;69.34;98428.38;5028241;28;20132;-78
2022/12/13 03:18:16;;;;;;;47.33;17.27;;;;;;;-6.41;69.27;98408.53;5028033;28;20419;-78
2022/12/13 03:20:47;;;;;;;67.88;25.77;;;;;;;-6.44;69.33;98415.81;5027936;28;21110;-78
2022/12/13 03:23:14;;;;;;;60.17;24.45;;;;;;;-6.55;68.80;98413.47;5029926;28;20051;-78
2022/12/13 03:25:39;;;;;;;57.78;20.40;;;;;;;-6.43;68.72;98418.25;5025169;28;20485;-78
2022/12/13 03:28:05;;;;;;;42.95;20.00;;;;;;;-6.61;68.79;98409.69;5029414;28;20068;-78
2022/12/13 03:30:31;;;;;;;44.47;16.90;;;;;;;-6.47;69.31;98405.72;5026672;28;20021;-78
2022/12/13 03:32:57;;;;;;;35.45;14.07;;;;;;;-6.48;68.90;98417.06;5027171;28;20511;-78
2022/12/13 03:35:23;;;;;;;32.67;13.70;;;;;;;-6.47;68.70;98416.94;5030478;28;20032;-78
2022/12/13 03:37:49;;;;;;;53.58;18.90;;;;;;;-6.42;69.10;98419.84;5029990;28;20045;-78
2022/12/13 03:40:15;;;;;;;81.90;27.65;;;;;;;-6.49;68.77;98402.47;5027547;28;20033;-78
2022/12/13 03:42:40;;;;;;;119.72;34.88;;;;;;;-6.50;68.54;98430.19;5025511;28;20121;-78
2022/12/13 03:45:06;;;;;;;59.92;24.02;;;;;;;-6.65;68.93;98423.09;5029514;28;20036;-78
2022/12/13 03:47:31;;;;;;;46.95;16.88;;;;;;;-6.65;68.79;98423.91;5032027;28;20048;-78
2022/12/13 03:49:57;;;;;;;40.10;16.17;;;;;;;-6.72;68.79;98409.91;5032032;28;20037;-78
2022/12/13 03:52:22;;;;;;;41.25;17.05;;;;;;;-6.67;68.93;98422.44;5031607;28;20083;-78
2022/12/13 03:54:48;;;;;;;36.08;14.55;;;;;;;-6.73;68.68;98405.72;5030405;28;20080;-78
2022/12/13 03:57:14;;;;;;;34.45;14.30;;;;;;;-6.62;68.60;98412.44;5030171;28;20115;-78
2022/12/13 03:59:40;;;;;;;32.58;13.77;;;;;;;-6.67;68.91;98418.06;5031120;28;20029;-78
2022/12/13 04:02:05;;;;;;;32.78;14.25;;;;;;;-6.72;69.13;98404.72;5028264;28;20108;-78
2022/12/13 04:04:30;;;;;;;38.75;15.85;;;;;;;-6.65;68.70;98391.97;5028383;28;20108;-78
2022/12/13 04:06:56;;;;;;;38.35;15.15;;;;;;;-6.70;68.50;98376.84;5023196;28;20106;-78
2022/12/13 04:09:21;;;;;;;33.22;15.68;;;;;;;-6.63;68.86;98401.22;5028766;28;20037;-78
2022/12/13 04:14:32;;;;;;;31.95;13.55;;;;;;;-6.77;68.74;98373.22;5006084;28;20049;-78
2022/12/13 04:16:57;;;;;;;30.73;13.80;;;;;;;-6.64;68.69;98388.41;5025114;28;20518;-78
2022/12/13 04:19:23;;;;;;;30.10;13.32;;;;;;;-6.62;68.52;98399.47;5014767;28;20059;-77
2022/12/13 04:21:48;;;;;;;31.10;13.13;;;;;;;-6.67;68.34;98405.09;5025158;28;20041;-77
2022/12/13 04:24:15;;;;;;;28.88;14.35;;;;;;;-6.84;68.27;98392.97;5031299;28;20028;-77
2022/12/13 04:26:40;;;;;;;29.42;13.40;;;;;;;-6.82;68.39;98385.03;5011993;28;20095;-77
2022/12/13 04:29:05;;;;;;;28.05;12.85;;;;;;;-6.79;68.47;98397.72;5028849;28;20034;-77
2022/12/13 04:31:31;;;;;;;29.23;14.90;;;;;;;-6.82;68.62;98400.59;5027067;28;20056;-77
2022/12/13 04:33:56;;;;;;;31.42;13.38;;;;;;;-6.97;68.19;98400.31;5027661;28;20041;-77
2022/12/13 04:36:21;;;;;;;30.83;13.20;;;;;;;-6.89;68.67;98400.38;5027867;28;20038;-78
2022/12/13 04:38:47;;;;;;;36.45;15.50;;;;;;;-6.96;68.42;98404.53;5027679;28;20060;-78
2022/12/13 04:41:15;;;;;;;31.30;13.05;;;;;;;-6.84;68.59;98405.94;5033081;28;20159;-78
2022/12/13 04:43:41;;;;;;;31.17;14.00;;;;;;;-6.92;68.71;98388.53;5028303;28;20568;-78
2022/12/13 04:46:06;;;;;;;30.35;13.90;;;;;;;-6.88;68.38;98389.06;5021995;28;20164;-77
2022/12/13 04:48:33;;;;;;;32.83;13.68;;;;;;;-6.77;68.70;98403.56;5011393;28;20079;-77
2022/12/13 04:50:59;;;;;;;27.30;13.95;;;;;;;-6.86;68.37;98400.09;5040001;28;20037;-77
2022/12/13 04:53:24;;;;;;;30.67;15.18;;;;;;;-6.84;68.50;98403.34;5028236;28;20029;-79
2022/12/13 04:55:49;;;;;;;34.70;14.32;;;;;;;-7.04;68.47;98391.50;5027824;28;20082;-77
2022/12/13 04:58:15;;;;;;;33.47;14.30;;;;;;;-6.95;68.31;98407.00;5043087;28;20033;-77
2022/12/13 05:00:40;;;;;;;35.45;13.15;;;;;;;-7.03;68.64;98408.69;5029799;28;20034;-78
2022/12/13 05:03:06;;;;;;;28.25;13.60;;;;;;;-7.05;68.76;98397.66;5025615;28;20469;-78
2022/12/13 05:05:31;;;;;;;33.28;14.50;;;;;;;-6.94;68.72;98384.44;5011369;28;20374;-78
2022/12/13 05:07:56;;;;;;;23.60;12.00;;;;;;;-7.02;68.06;98385.22;5025259;28;20032;-78
2022/12/13 05:10:22;;;;;;;34.83;14.95;;;;;;;-6.92;68.40;98404.09;5027396;28;20078;-78
2022/12/13 05:12:47;;;;;;;32.83;14.20;;;;;;;-6.88;68.21;98402.03;5040906;28;20120;-78
2022/12/13 05:15:12;;;;;;;29.45;12.75;;;;;;;-6.90;68.21;98404.75;5040942;28;20135;-78
2022/12/13 05:17:38;;;;;;;28.70;13.10;;;;;;;-6.97;68.19;98406.31;5027685;28;20453;-78
2022/12/13 05:20:03;;;;;;;29.77;13.82;;;;;;;-7.00;68.09;98390.25;5028344;28;20029;-78
2022/12/13 05:22:29;;;;;;;29.77;12.43;;;;;;;-6.85;68.67;98401.72;5022611;28;20041;-78
2022/12/13 05:24:54;;;;;;;35.25;12.68;;;;;;;-6.83;68.23;98401.53;5029648;28;20480;-80
2022/12/13 05:27:19;;;;;;;28.20;13.73;;;;;;;-6.82;67.75;98409.19;5028621;28;20033;-78
2022/12/13 05:29:45;;;;;;;27.25;12.77;;;;;;;-6.76;67.91;98398.22;5030700;28;20048;-78
2022/12/13 05:32:10;;;;;;;31.27;14.55;;;;;;;-6.83;67.99;98406.72;5046303;28;20026;-78
2022/12/13 05:34:36;;;;;;;33.38;13.93;;;;;;;-6.94;67.88;98394.81;5031824;28;20029;-78
2022/12/13 05:37:01;;;;;;;29.70;12.98;;;;;;;-6.88;67.41;98404.63;5029512;28;20107;-78
2022/12/13 05:39:26;;;;;;;26.60;13.13;;;;;;;-6.97;67.52;98397.72;5030016;28;20029;-78
2022/12/13 05:41:53;;;;;;;32.95;14.20;;;;;;;-6.96;67.40;98391.56;5014628;28;20056;-78
2022/12/13 05:44:18;;;;;;;32.45;15.15;;;;;;;-7.02;67.40;98392.16;5035430;28;20120;-78
2022/12/13 05:46:44;;;;;;;31.10;13.48;;;;;;;-7.00;67.90;98401.44;5030462;28;20116;-78
2022/12/13 05:49:09;;;;;;;29.00;13.07;;;;;;;-7.09;67.61;98380.75;5031073;28;20059;-78
2022/12/13 05:51:34;;;;;;;24.00;11.95;;;;;;;-7.13;67.94;98389.81;5031160;28;20273;-78
2022/12/13 05:54:00;;;;;;;28.98;11.52;;;;;;;-7.05;68.19;98410.59;5049958;28;20033;-78
2022/12/13 05:56:25;;;;;;;31.88;14.82;;;;;;;-6.98;67.94;98401.28;5030741;28;20519;-78
2022/12/13 05:58:52;;;;;;;30.88;12.07;;;;;;;-7.04;67.80;98407.06;5030884;28;20040;-78
2022/12/13 06:01:18;;;;;;;26.75;14.40;;;;;;;-7.27;67.68;98401.50;5028419;28;20051;-78
2022/12/13 06:03:43;;;;;;;38.83;13.55;;;;;;;-7.12;68.18;98409.59;5028336;28;20108;-78
2022/12/13 06:06:11;;;;;;;29.40;12.75;;;;;;;-7.29;67.87;98408.59;5014353;28;20131;-78
2022/12/13 06:08:37;;;;;;;27.58;13.27;;;;;;;-7.29;68.21;98411.19;5028487;28;20116;-78
2022/12/13 06:11:04;;;;;;;27.67;11.95;;;;;;;-7.32;68.08;98408.09;5029742;28;20120;-78
2022/12/13 06:13:30;;;;;;;26.27;13.13;;;;;;;-7.31;67.99;98409.72;5031597;28;20477;-78
2022/12/13 06:16:01;;;;;;;23.23;11.85;;;;;;;-7.29;67.95;98402.59;5027897;28;20028;-78
2022/12/13 06:18:27;;;;;;;30.98;13.02;;;;;;;-7.33;68.15;98390.91;5029924;28;20017;-78
2022/12/13 06:20:57;;;;;;;27.42;12.63;;;;;;;-7.19;67.99;98401.59;5031349;28;20036;-78
2022/12/13 06:23:23;;;;;;;29.98;12.70;;;;;;;-7.18;68.18;98384.25;5030472;28;20392;-78
2022/12/13 06:25:48;;;;;;;27.48;12.13;;;;;;;-7.19;67.63;98390.41;5029287;28;20046;-78
2022/12/13 06:28:14;;;;;;;32.13;13.05;;;;;;;-7.20;67.64;98394.78;5030441;28;20034;-78
2022/12/13 06:30:39;;;;;;;32.88;13.77;;;;;;;-7.41;68.13;98398.63;5029681;28;20034;-78
2022/12/13 06:33:04;;;;;;;28.08;11.90;;;;;;;-7.29;68.00;98398.25;5045191;28;20095;-78
2022/12/13 06:35:30;;;;;;;34.08;13.80;;;;;;;-7.15;67.96;98399.50;5030065;28;20040;-78
2022/12/13 06:37:56;;;;;;;28.92;14.10;;;;;;;-7.17;67.20;98393.66;5030817;28;20672;-78
2022/12/13 06:40:22;;;;;;;34.10;13.07;;;;;;;-7.15;67.72;98399.50;5030945;28;20031;-78
2022/12/13 06:42:47;;;;;;;30.33;13.00;;;;;;;-7.10;67.43;98397.28;5039185;28;20029;-78
2022/12/13 06:45:12;;;;;;;29.50;14.80;;;;;;;-7.11;67.67;98398.25;5030322;28;20483;-78
2022/12/13 06:47:38;;;;;;;29.08;13.57;;;;;;;-7.25;67.82;98394.38;5025892;28;20040;-78
2022/12/13 06:50:04;;;;;;;32.63;15.63;;;;;;;-7.18;67.59;98392.00;5028973;28;20033;-78
2022/12/13 06:52:29;;;;;;;37.80;17.35;;;;;;;-7.32;67.96;98395.13;5027982;28;20064;-78
2022/12/13 06:54:54;;;;;;;44.25;19.48;;;;;;;-7.52;67.91;98378.09;5027899;28;20060;-78
2022/12/13 06:57:20;;;;;;;36.85;18.95;;;;;;;-7.17;67.67;98406.63;5031134;28;20509;-78
2022/12/13 06:59:46;;;;;;;39.70;18.65;;;;;;;-7.22;67.39;98416.63;5027791;28;20029;-78
2022/12/13 07:02:11;;;;;;;44.58;18.23;;;;;;;-7.30;67.64;98403.59;5029036;28;20031;-78
2022/12/13 07:04:36;;;;;;;38.92;16.67;;;;;;;-7.34;67.93;98402.25;5030192;28;21028;-77
2022/12/13 07:07:02;;;;;;;36.63;17.02;;;;;;;-7.28;67.59;98415.44;5030870;28;20489;-78
2022/12/13 07:09:29;;;;;;;36.05;15.90;;;;;;;-7.41;67.19;98404.63;5015131;28;20037;-78
2022/12/13 07:11:54;;;;;;;35.70;14.80;;;;;;;-7.43;68.01;98410.91;5054504;28;20040;-78
2022/12/13 07:14:20;;;;;;;31.65;12.98;;;;;;;-7.34;67.96;98399.66;5012779;28;20037;-78
2022/12/13 07:16:45;;;;;;;39.30;15.55;;;;;;;-7.34;68.20;98400.47;5028810;28;20045;-78
2022/12/13 07:19:11;;;;;;;33.58;15.38;;;;;;;-7.31;67.45;98399.34;5030002;28;20106;-78
2022/12/13 07:21:38;;;;;;;39.03;15.25;;;;;;;-7.23;67.42;98405.41;5012994;28;20033;-78
2022/12/13 07:24:04;;;;;;;38.92;14.07;;;;;;;-7.26;67.48;98397.97;5027417;28;20048;-78
2022/12/13 07:26:30;;;;;;;30.50;12.68;;;;;;;-7.31;67.24;98399.34;5026083;28;20037;-78
2022/12/13 07:28:55;;;;;;;32.30;14.88;;;;;;;-7.42;67.78;98409.94;5026247;28;20033;-78
2022/12/13 07:31:23;;;;;;;42.05;19.77;;;;;;;-7.41;67.73;98411.56;5029492;28;20057;-78
2022/12/13 07:33:48;;;;;;;43.03;17.20;;;;;;;-7.48;68.07;98402.75;5031095;28;20261;-78
2022/12/13 07:36:16;;;;;;;42.55;19.85;;;;;;;-7.42;68.11;98402.16;5029697;28;20420;-78
2022/12/13 07:38:42;;;;;;;51.42;23.17;;;;;;;-7.32;67.62;98408.94;5012800;28;20029;-78
2022/12/13 07:41:08;;;;;;;47.55;20.67;;;;;;;-7.25;67.87;98415.13;5039654;28;20033;-80
2022/12/13 07:43:34;;;;;;;38.78;16.60;;;;;;;-7.24;67.81;98415.94;5030829;28;20021;-78
2022/12/13 07:46:02;;;;;;;36.22;15.55;;;;;;;-7.33;67.81;98406.47;5029542;28;20033;-78
2022/12/13 07:48:28;;;;;;;30.08;14.80;;;;;;;-7.31;67.47;98401.94;5026121;28;20493;-78
2022/12/13 07:50:59;;;;;;;43.08;18.17;;;;;;;-7.21;67.61;98413.06;5029596;28;20033;-78
2022/12/13 07:53:24;;;;;;;34.85;15.88;;;;;;;-7.31;67.79;98414.91;5029238;28;20112;-78
2022/12/13 07:55:49;;;;;;;36.28;17.15;;;;;;;-7.31;67.98;98412.31;5026013;28;20121;-78
2022/12/13 07:58:15;;;;;;;31.33;15.38;;;;;;;-7.35;67.74;98411.78;5028184;28;20075;-78
2022/12/13 08:00:42;;;;;;;44.45;18.95;;;;;;;-7.27;67.92;98416.25;5025690;28;20045;-78
2022/12/13 08:03:08;;;;;;;61.85;27.65;;;;;;;-7.46;68.14;98411.19;5028389;28;20472;-78
2022/12/13 08:05:35;;;;;;;63.63;30.35;;;;;;;-7.44;68.35;98415.25;5027412;28;20028;-78
2022/12/13 08:08:02;;;;;;;44.97;19.73;;;;;;;-7.35;68.11;98403.19;5043098;28;20301;-78
2022/12/13 08:10:28;;;;;;;42.75;18.48;;;;;;;-7.13;67.94;98426.09;5029720;28;20048;-78
2022/12/13 08:12:54;;;;;;;40.50;16.92;;;;;;;-7.19;68.14;98403.38;5028397;28;20559;-78
2022/12/13 08:15:20;;;;;;;47.63;22.35;;;;;;;-7.05;67.79;98424.41;5025456;28;20026;-78
2022/12/13 08:17:46;;;;;;;67.43;28.42;;;;;;;-7.03;68.06;98416.47;5011655;28;20040;-78
2022/12/13 08:20:11;;;;;;;45.15;19.50;;;;;;;-6.99;68.20;98420.41;5026772;28;20420;-78
2022/12/13 08:22:36;;;;;;;43.30;17.02;;;;;;;-6.91;67.62;98425.66;5012125;28;20037;-78
2022/12/13 08:25:02;;;;;;;32.13;14.70;;;;;;;-6.96;67.93;98430.47;5043546;28;20041;-78
2022/12/13 08:27:28;;;;;;;37.03;15.32;;;;;;;-7.03;68.26;98432.00;5023669;28;20456;-78
2022/12/13 08:29:53;;;;;;;39.67;15.73;;;;;;;-6.96;67.98;98430.47;5029775;28;20095;-78
2022/12/13 08:32:19;;;;;;;38.88;15.52;;;;;;;-6.91;68.07;98444.63;5025644;28;20381;-78
2022/12/13 08:34:44;;;;;;;40.75;16.77;;;;;;;-6.98;68.10;98442.78;5027302;28;20045;-78
2022/12/13 08:37:10;;;;;;;30.55;15.23;;;;;;;-6.96;68.64;98431.28;5028340;28;20034;-78
2022/12/13 08:39:37;;;;;;;40.05;16.45;;;;;;;-6.99;68.54;98439.34;5028715;28;20079;-78
2022/12/13 08:42:05;;;;;;;39.83;18.55;;;;;;;-6.87;68.66;98439.94;5025610;28;22115;-78
2022/12/13 08:44:30;;;;;;;42.65;18.98;;;;;;;-6.83;68.78;98441.28;5028609;28;20048;-78
2022/12/13 08:46:55;;;;;;;41.28;17.90;;;;;;;-6.95;68.40;98435.53;5026595;28;20044;-78
2022/12/13 08:49:21;;;;;;;40.25;16.98;;;;;;;-7.08;69.51;98423.88;5012462;28;20187;-78
2022/12/13 08:51:46;;;;;;;40.17;17.15;;;;;;;-6.96;69.46;98431.28;5021322;28;20037;-78
2022/12/13 08:54:12;;;;;;;44.85;21.63;;;;;;;-6.90;69.60;98427.28;5022999;28;20067;-78
2022/12/13 08:56:37;;;;;;;40.67;17.08;;;;;;;-6.77;69.18;98430.28;5022721;28;20052;-78
2022/12/13 08:59:02;;;;;;;44.22;21.55;;;;;;;-6.66;69.43;98437.06;5010373;28;20163;-78
2022/12/13 09:01:28;;;;;;;43.45;20.35;;;;;;;-6.92;70.33;98442.16;5024951;28;20543;-78
2022/12/13 09:03:54;;;;;;;58.45;23.90;;;;;;;-7.90;71.55;98434.31;5024633;28;20041;-78
2022/12/13 09:06:20;;;;;;;58.65;23.30;;;;;;;-8.16;75.48;98442.88;5027029;28;20033;-78
2022/12/13 09:08:45;;;;;;;55.88;23.95;;;;;;;-7.44;73.15;98456.72;5026656;28;20059;-78
2022/12/13 09:11:11;;;;;;;54.53;24.67;;;;;;;-7.31;74.04;98448.59;5041667;28;20045;-78
2022/12/13 09:13:37;;;;;;;61.55;22.08;;;;;;;-6.96;72.23;98446.84;5008348;28;20029;-78
2022/12/13 09:16:14;;;;;;;57.65;21.73;;;;;;;-6.69;71.87;98455.50;5028443;28;20443;-78
2022/12/13 09:18:40;;;;;;;49.45;22.05;;;;;;;-6.66;71.63;98439.66;5028939;28;20043;-78
2022/12/13 09:21:11;;;;;;;45.60;19.25;;;;;;;-6.50;71.29;98453.56;5028092;28;20029;-78
2022/12/13 09:23:37;;;;;;;52.40;20.30;;;;;;;-6.68;72.10;98449.38;5027207;28;20033;-78
2022/12/13 09:26:02;;;;;;;50.88;21.30;;;;;;;-7.66;74.45;98444.97;5030603;28;20037;-78
2022/12/13 09:28:28;;;;;;;54.05;21.35;;;;;;;-6.91;73.98;98449.00;5026400;28;20026;-78
2022/12/13 09:30:55;;;;;;;49.03;20.20;;;;;;;-6.57;72.54;98447.31;5028367;28;20040;-78
2022/12/13 09:33:20;;;;;;;46.40;19.67;;;;;;;-6.55;72.12;98442.78;5027955;28;20403;-78
2022/12/13 09:35:46;;;;;;;51.45;21.42;;;;;;;-6.45;72.31;98446.13;5008141;28;20025;-78
2022/12/13 09:38:11;;;;;;;55.20;23.10;;;;;;;-6.88;72.79;98443.53;5045793;28;20476;-78
2022/12/13 09:40:38;;;;;;;62.22;24.13;;;;;;;-7.62;75.66;98456.69;5032089;28;20029;-78
2022/12/13 09:43:05;;;;;;;50.10;21.17;;;;;;;-6.77;74.47;98448.44;5029891;28;20103;-78
2022/12/13 09:45:32;;;;;;;56.45;21.67;;;;;;;-6.51;72.95;98451.13;5008576;28;20048;-78
2022/12/13 09:47:58;;;;;;;63.45;22.27;;;;;;;-6.42;72.96;98448.41;5026158;28;20025;-78
2022/12/13 09:50:34;;;;;;;53.80;23.38;;;;;;;-6.37;72.84;98447.97;5029106;28;20072;-78
2022/12/13 09:53:03;;;;;;;50.60;22.83;;;;;;;-6.31;72.16;98447.38;5023969;28;20033;-78
2022/12/13 09:55:49;;;;;;;52.83;21.80;;;;;;;-6.45;73.17;98440.94;5028195;28;20030;-78
2022/12/13 09:58:26;;;;;;;46.95;20.70;;;;;;;-6.35;73.21;98436.47;5024651;28;20025;-78
2022/12/13 10:00:54;;;;;;;46.58;20.98;;;;;;;-6.51;73.04;98425.94;5025980;28;20053;-78
2022/12/13 10:03:21;;;;;;;51.10;19.95;;;;;;;-6.68;74.94;98429.41;5028188;28;20029;-78
2022/12/13 10:05:54;;;;;;;46.25;21.20;;;;;;;-6.44;73.84;98439.16;5029182;28;20029;-78
2022/12/13 10:08:23;;;;;;;42.78;20.88;;;;;;;-7.27;76.63;98437.78;5030958;28;20346;-78
2022/12/13 10:10:51;;;;;;;49.88;20.92;;;;;;;-6.61;76.26;98434.81;5028864;28;20021;-78
2022/12/13 10:13:23;;;;;;;50.33;21.45;;;;;;;-6.26;74.41;98440.75;5033835;28;20033;-78
2022/12/13 10:16:06;;;;;;;52.13;22.65;;;;;;;-6.19;73.80;98425.38;5032977;28;20028;-78
2022/12/13 10:18:35;;;;;;;49.97;21.48;;;;;;;-6.23;73.88;98427.47;5032460;28;20028;-78
2022/12/13 10:21:06;;;;;;;52.10;22.10;;;;;;;-6.29;74.27;98433.25;5026945;28;20030;-78
2022/12/13 10:23:32;;;;;;;54.30;23.10;;;;;;;-6.12;74.21;98414.22;5034513;28;20033;-78
2022/12/13 10:25:57;;;;;;;51.40;21.60;;;;;;;-6.18;73.96;98417.41;5028985;28;20033;-78
2022/12/13 10:28:30;;;;;;;37.28;19.15;;;;;;;-6.24;74.49;98423.22;5027704;28;20468;-78
2022/12/13 10:30:57;;;;;;;47.25;21.70;;;;;;;-6.16;74.37;98418.06;5048676;28;20029;-78
2022/12/13 10:33:30;;;;;;;52.92;21.50;;;;;;;-6.83;76.00;98420.53;5031703;28;20030;-78
2022/12/13 10:36:04;;;;;;;48.58;20.33;;;;;;;-6.40;75.43;98407.53;5029037;28;20029;-78
2022/12/13 10:38:34;;;;;;;48.13;21.27;;;;;;;-6.28;75.01;98426.28;5026985;28;20034;-78
2022/12/13 10:41:00;;;;;;;41.95;19.13;;;;;;;-6.05;74.79;98411.00;5028519;28;20033;-78
2022/12/13 10:43:26;;;;;;;37.15;19.27;;;;;;;-6.13;75.22;98401.38;5028063;28;20509;-78
2022/12/13 10:45:57;;;;;;;48.33;21.10;;;;;;;-6.45;76.49;98420.19;5027723;28;20037;-78
2022/12/13 10:48:48;;;;;;;57.45;22.80;;;;;;;-6.19;75.35;98410.59;5030081;28;20075;-78
2022/12/13 10:51:17;;;;;;;46.85;21.50;;;;;;;-5.99;74.91;98400.81;5019486;28;20481;-78
2022/12/13 10:53:47;;;;;;;49.03;21.90;;;;;;;-6.23;75.82;98409.28;5030775;28;20401;-78
2022/12/13 10:56:12;;;;;;;53.88;21.05;;;;;;;-5.97;75.32;98406.66;5032043;28;20033;-78
2022/12/13 10:58:41;;;;;;;44.97;20.25;;;;;;;-5.94;74.60;98405.53;5031307;28;20025;-78
2022/12/13 11:01:08;;;;;;;53.05;20.15;;;;;;;-5.88;74.36;98392.75;5028324;28;20108;-78
2022/12/13 11:03:33;;;;;;;44.65;21.50;;;;;;;-5.89;74.72;98400.66;5028772;28;20026;-78
2022/12/13 11:06:12;;;;;;;41.55;19.20;;;;;;;-5.81;74.82;98403.28;5014427;28;20120;-78
2022/12/13 11:08:38;;;;;;;51.83;22.10;;;;;;;-6.21;75.91;98386.59;5027110;28;20083;-78
2022/12/13 11:11:06;;;;;;;43.97;21.40;;;;;;;-5.76;75.30;98390.63;5030893;28;20022;-78
2022/12/13 11:13:44;;;;;;;49.42;21.90;;;;;;;-5.79;74.51;98389.19;5039311;28;20389;-78
2022/12/13 11:16:22;;;;;;;46.55;22.80;;;;;;;-5.69;74.53;98384.66;5026493;28;20025;-78
2022/12/13 11:18:54;;;;;;;47.55;22.35;;;;;;;-5.55;74.96;98391.03;5028685;28;20541;-78
2022/12/13 11:21:29;;;;;;;55.72;23.00;;;;;;;-5.49;74.73;98372.19;5030049;28;20037;-78
2022/12/13 11:23:56;;;;;;;;;;;;;;;-5.36;73.77;98386.38;5033353;28;20041;-78
2022/12/13 11:26:24;;;;;;;42.38;20.75;;;;;;;-5.46;74.65;98377.09;5031647;28;19913;-78